sensor_id;sensor_type;location;lat;lon;timestamp;pressure;altitude;pressure_sealevel;temperature;humidity
83200;BME280;73092;49.132;8.920;2024-01-25T00:01:55;100585.38;;;8.47;85.88
83200;BME280;73092;49.132;8.920;2024-01-25T00:04:21;100590.63;;;8.41;86.07
83200;BME280;73092;49.132;8.920;2024-01-25T00:06:46;100587.09;;;8.30;87.18
83200;BME280;73092;49.132;8.920;2024-01-25T00:09:12;100589.75;;;8.28;87.12
83200;BME280;73092;49.132;8.920;2024-01-25T00:11:37;100584.50;;;8.21;87.39
83200;BME280;73092;49.132;8.920;2024-01-25T00:14:03;100589.75;;;8.16;87.97
83200;BME280;73092;49.132;8.920;2024-01-25T00:16:28;100597.59;;;8.15;88.01
83200;BME280;73092;49.132;8.920;2024-01-25T00:18:54;100604.59;;;8.16;87.90
83200;BME280;73092;49.132;8.920;2024-01-25T00:21:19;100595.88;;;8.14;88.24
83200;BME280;73092;49.132;8.920;2024-01-25T00:23:45;100588.88;;;8.25;88.27
83200;BME280;73092;49.132;8.920;2024-01-25T00:26:10;100576.66;;;8.15;87.92
83200;BME280;73092;49.132;8.920;2024-01-25T00:28:36;100584.50;;;8.11;88.28
83200;BME280;73092;49.132;8.920;2024-01-25T00:31:02;100583.63;;;8.11;88.95
83200;BME280;73092;49.132;8.920;2024-01-25T00:33:27;100579.31;;;8.05;88.80
83200;BME280;73092;49.132;8.920;2024-01-25T00:35:53;100573.19;;;8.03;89.33
83200;BME280;73092;49.132;8.920;2024-01-25T00:38:18;100577.53;;;8.03;89.02
83200;BME280;73092;49.132;8.920;2024-01-25T00:40:44;100566.22;;;8.05;89.10
83200;BME280;73092;49.132;8.920;2024-01-25T00:43:09;100559.19;;;8.04;89.39
83200;BME280;73092;49.132;8.920;2024-01-25T00:45:35;100557.47;;;8.03;89.30
83200;BME280;73092;49.132;8.920;2024-01-25T00:48:01;100559.19;;;8.01;89.70
83200;BME280;73092;49.132;8.920;2024-01-25T00:50:26;100555.72;;;7.98;89.99
83200;BME280;73092;49.132;8.920;2024-01-25T00:52:52;100557.47;;;7.97;90.41
83200;BME280;73092;49.132;8.920;2024-01-25T00:55:18;100560.97;;;8.05;89.32
83200;BME280;73092;49.132;8.920;2024-01-25T00:57:44;100557.47;;;8.03;89.45
83200;BME280;73092;49.132;8.920;2024-01-25T01:00:10;100559.19;;;8.07;89.59
83200;BME280;73092;49.132;8.920;2024-01-25T01:02:39;100564.44;;;8.01;89.48
83200;BME280;73092;49.132;8.920;2024-01-25T01:05:06;100571.44;;;7.93;89.67
83200;BME280;73092;49.132;8.920;2024-01-25T01:07:31;100565.31;;;7.94;89.70
83200;BME280;73092;49.132;8.920;2024-01-25T01:09:57;100570.53;;;8.05;88.95
83200;BME280;73092;49.132;8.920;2024-01-25T01:12:22;100567.06;;;8.00;89.70
83200;BME280;73092;49.132;8.920;2024-01-25T01:14:47;100569.69;;;7.98;89.74
83200;BME280;73092;49.132;8.920;2024-01-25T01:17:13;100570.56;;;8.09;89.06
83200;BME280;73092;49.132;8.920;2024-01-25T01:19:38;100578.41;;;8.09;88.92
83200;BME280;73092;49.132;8.920;2024-01-25T01:22:04;100574.03;;;8.13;87.86
83200;BME280;73092;49.132;8.920;2024-01-25T01:24:29;100565.31;;;8.08;88.24
83200;BME280;73092;49.132;8.920;2024-01-25T01:26:54;100566.16;;;8.15;87.78
83200;BME280;73092;49.132;8.920;2024-01-25T01:29:20;100573.19;;;8.06;89.06
83200;BME280;73092;49.132;8.920;2024-01-25T01:31:46;100581.00;;;8.05;88.56
83200;BME280;73092;49.132;8.920;2024-01-25T01:34:11;100584.53;;;8.07;88.90
83200;BME280;73092;49.132;8.920;2024-01-25T01:36:39;100583.66;;;8.03;88.64
83200;BME280;73092;49.132;8.920;2024-01-25T01:39:05;100583.66;;;8.00;88.45
83200;BME280;73092;49.132;8.920;2024-01-25T01:41:31;100581.00;;;8.05;88.35
83200;BME280;73092;49.132;8.920;2024-01-25T01:43:57;100581.00;;;8.02;88.45
83200;BME280;73092;49.132;8.920;2024-01-25T01:46:33;100583.66;;;8.09;87.82
83200;BME280;73092;49.132;8.920;2024-01-25T01:49:00;100575.78;;;8.09;88.19
83200;BME280;73092;49.132;8.920;2024-01-25T01:51:26;100573.19;;;8.03;88.33
83200;BME280;73092;49.132;8.920;2024-01-25T01:53:53;100574.03;;;8.10;87.49
83200;BME280;73092;49.132;8.920;2024-01-25T01:56:19;100568.81;;;8.10;86.99
83200;BME280;73092;49.132;8.920;2024-01-25T01:58:45;100569.66;;;8.14;86.88
83200;BME280;73092;49.132;8.920;2024-01-25T02:01:13;100571.41;;;8.15;86.97
83200;BME280;73092;49.132;8.920;2024-01-25T02:03:38;100576.66;;;8.15;86.18
83200;BME280;73092;49.132;8.920;2024-01-25T02:06:04;100560.94;;;8.11;86.57
83200;BME280;73092;49.132;8.920;2024-01-25T02:08:29;100567.94;;;8.19;86.15
83200;BME280;73092;49.132;8.920;2024-01-25T02:10:55;100571.41;;;8.18;86.24
83200;BME280;73092;49.132;8.920;2024-01-25T02:13:21;100567.94;;;8.22;85.81
83200;BME280;73092;49.132;8.920;2024-01-25T02:15:47;100574.91;;;8.10;86.82
83200;BME280;73092;49.132;8.920;2024-01-25T02:18:12;100579.25;;;8.15;86.87
83200;BME280;73092;49.132;8.920;2024-01-25T02:20:37;100580.16;;;8.18;86.17
83200;BME280;73092;49.132;8.920;2024-01-25T02:23:03;100575.78;;;8.11;86.35
83200;BME280;73092;49.132;8.920;2024-01-25T02:25:28;100571.44;;;8.02;87.26
83200;BME280;73092;49.132;8.920;2024-01-25T02:27:54;100581.91;;;8.02;86.87
83200;BME280;73092;49.132;8.920;2024-01-25T02:30:19;100581.91;;;8.02;86.64
83200;BME280;73092;49.132;8.920;2024-01-25T02:32:44;100576.66;;;8.01;87.03
83200;BME280;73092;49.132;8.920;2024-01-25T02:35:09;100588.88;;;7.94;87.35
83200;BME280;73092;49.132;8.920;2024-01-25T02:37:35;100576.66;;;8.01;86.78
83200;BME280;73092;49.132;8.920;2024-01-25T02:40:00;100586.28;;;7.94;87.75
83200;BME280;73092;49.132;8.920;2024-01-25T02:42:26;100580.16;;;7.89;87.99
83200;BME280;73092;49.132;8.920;2024-01-25T02:44:51;100587.16;;;7.99;87.41
83200;BME280;73092;49.132;8.920;2024-01-25T02:47:16;100588.00;;;8.07;86.41
83200;BME280;73092;49.132;8.920;2024-01-25T02:49:42;100581.91;;;7.99;86.83
83200;BME280;73092;49.132;8.920;2024-01-25T02:52:07;100588.03;;;7.97;86.93
83200;BME280;73092;49.132;8.920;2024-01-25T02:54:36;100595.00;;;7.93;87.43
83200;BME280;73092;49.132;8.920;2024-01-25T02:57:04;100589.75;;;7.92;87.54
83200;BME280;73092;49.132;8.920;2024-01-25T02:59:30;100591.50;;;7.94;87.16
83200;BME280;73092;49.132;8.920;2024-01-25T03:01:55;100590.63;;;7.86;86.95
83200;BME280;73092;49.132;8.920;2024-01-25T03:04:20;100590.63;;;7.83;87.02
83200;BME280;73092;49.132;8.920;2024-01-25T03:06:46;100595.84;;;7.83;86.96
83200;BME280;73092;49.132;8.920;2024-01-25T03:09:11;100592.38;;;7.96;85.97
83200;BME280;73092;49.132;8.920;2024-01-25T03:11:36;100599.34;;;7.88;86.31
83200;BME280;73092;49.132;8.920;2024-01-25T03:14:02;100592.38;;;7.81;86.76
83200;BME280;73092;49.132;8.920;2024-01-25T03:16:27;100595.00;;;7.78;86.91
83200;BME280;73092;49.132;8.920;2024-01-25T03:18:52;100595.84;;;7.77;86.80
83200;BME280;73092;49.132;8.920;2024-01-25T03:21:18;100593.22;;;7.77;87.13
83200;BME280;73092;49.132;8.920;2024-01-25T03:23:43;100601.97;;;7.74;87.46
83200;BME280;73092;49.132;8.920;2024-01-25T03:26:08;100590.59;;;7.77;87.22
83200;BME280;73092;49.132;8.920;2024-01-25T03:28:34;100584.50;;;7.73;86.92
83200;BME280;73092;49.132;8.920;2024-01-25T03:31:00;100594.97;;;7.70;87.37
83200;BME280;73092;49.132;8.920;2024-01-25T03:33:25;100600.19;;;7.70;87.64
83200;BME280;73092;49.132;8.920;2024-01-25T03:35:52;100599.31;;;7.63;87.72
83200;BME280;73092;49.132;8.920;2024-01-25T03:38:17;100609.78;;;7.63;87.71
83200;BME280;73092;49.132;8.920;2024-01-25T03:40:43;100604.56;;;7.63;88.15
83200;BME280;73092;49.132;8.920;2024-01-25T03:43:09;100613.28;;;7.65;87.78
83200;BME280;73092;49.132;8.920;2024-01-25T03:45:34;100607.19;;;7.63;87.86
83200;BME280;73092;49.132;8.920;2024-01-25T03:47:59;100601.94;;;7.63;88.00
83200;BME280;73092;49.132;8.920;2024-01-25T03:50:26;100606.31;;;7.58;88.02
83200;BME280;73092;49.132;8.920;2024-01-25T03:52:51;100617.63;;;7.57;87.96
83200;BME280;73092;49.132;8.920;2024-01-25T03:55:17;100618.53;;;7.59;87.54
83200;BME280;73092;49.132;8.920;2024-01-25T03:57:42;100606.31;;;7.68;86.92
83200;BME280;73092;49.132;8.920;2024-01-25T04:00:08;100615.88;;;7.61;87.43
83200;BME280;73092;49.132;8.920;2024-01-25T04:02:34;100616.75;;;7.61;87.74
83200;BME280;73092;49.132;8.920;2024-01-25T04:04:59;100634.22;;;7.62;87.12
83200;BME280;73092;49.132;8.920;2024-01-25T04:07:25;100638.56;;;7.57;87.92
83200;BME280;73092;49.132;8.920;2024-01-25T04:09:50;100639.44;;;7.50;88.13
83200;BME280;73092;49.132;8.920;2024-01-25T04:12:16;100643.75;;;7.42;88.75
83200;BME280;73092;49.132;8.920;2024-01-25T04:14:41;100625.41;;;7.36;88.76
83200;BME280;73092;49.132;8.920;2024-01-25T04:17:07;100627.16;;;7.31;89.61
83200;BME280;73092;49.132;8.920;2024-01-25T04:19:32;100635.88;;;7.36;89.07
83200;BME280;73092;49.132;8.920;2024-01-25T04:21:57;100632.41;;;7.37;89.03
83200;BME280;73092;49.132;8.920;2024-01-25T04:24:23;100633.28;;;7.40;88.36
83200;BME280;73092;49.132;8.920;2024-01-25T04:26:48;100627.16;;;7.31;88.64
83200;BME280;73092;49.132;8.920;2024-01-25T04:29:13;100633.22;;;7.22;89.03
83200;BME280;73092;49.132;8.920;2024-01-25T04:31:47;100628.81;;;7.13;89.41
83200;BME280;73092;49.132;8.920;2024-01-25T04:34:14;100643.66;;;7.08;89.84
83200;BME280;73092;49.132;8.920;2024-01-25T04:36:40;100641.00;;;7.02;90.04
83200;BME280;73092;49.132;8.920;2024-01-25T04:39:05;100637.44;;;6.92;90.35
83200;BME280;73092;49.132;8.920;2024-01-25T04:41:30;100645.25;;;6.85;91.17
83200;BME280;73092;49.132;8.920;2024-01-25T04:43:56;100648.75;;;6.88;91.00
83200;BME280;73092;49.132;8.920;2024-01-25T04:46:21;100654.78;;;6.80;91.09
83200;BME280;73092;49.132;8.920;2024-01-25T04:48:47;100661.72;;;6.68;91.25
83200;BME280;73092;49.132;8.920;2024-01-25T04:51:19;100660.75;;;6.57;91.58
83200;BME280;73092;49.132;8.920;2024-01-25T04:53:48;100667.66;;;6.46;92.11
83200;BME280;73092;49.132;8.920;2024-01-25T04:56:13;100665.84;;;6.42;92.47
83200;BME280;73092;49.132;8.920;2024-01-25T04:58:38;100666.75;;;6.45;92.45
83200;BME280;73092;49.132;8.920;2024-01-25T05:01:04;100675.50;;;6.46;91.86
83200;BME280;73092;49.132;8.920;2024-01-25T05:03:32;100674.63;;;6.47;92.41
83200;BME280;73092;49.132;8.920;2024-01-25T05:05:57;100692.81;;;6.38;92.71
83200;BME280;73092;49.132;8.920;2024-01-25T05:08:22;100684.00;;;6.26;93.26
83200;BME280;73092;49.132;8.920;2024-01-25T05:10:48;100691.78;;;6.14;93.89
83200;BME280;73092;49.132;8.920;2024-01-25T05:13:14;100701.25;;;6.08;94.38
83200;BME280;73092;49.132;8.920;2024-01-25T05:15:39;100703.03;;;6.10;94.56
83200;BME280;73092;49.132;8.920;2024-01-25T05:18:06;100699.56;;;6.11;93.44
83200;BME280;73092;49.132;8.920;2024-01-25T05:20:32;100699.50;;;6.05;94.09
83200;BME280;73092;49.132;8.920;2024-01-25T05:23:01;100692.53;;;6.02;94.01
83200;BME280;73092;49.132;8.920;2024-01-25T05:25:28;100692.44;;;5.95;94.25
83200;BME280;73092;49.132;8.920;2024-01-25T05:27:54;100694.09;;;5.90;94.27
83200;BME280;73092;49.132;8.920;2024-01-25T05:30:23;100701.06;;;5.91;94.39
83200;BME280;73092;49.132;8.920;2024-01-25T05:32:49;100689.59;;;5.76;94.23
83200;BME280;73092;49.132;8.920;2024-01-25T05:35:16;100691.50;;;5.91;94.56
83200;BME280;73092;49.132;8.920;2024-01-25T05:37:42;100693.97;;;5.77;94.43
83200;BME280;73092;49.132;8.920;2024-01-25T05:40:08;100693.84;;;5.65;94.42
83200;BME280;73092;49.132;8.920;2024-01-25T05:42:35;100698.25;;;5.72;95.28
83200;BME280;73092;49.132;8.920;2024-01-25T05:45:00;100692.13;;;5.67;95.52
83200;BME280;73092;49.132;8.920;2024-01-25T05:47:25;100700.72;;;5.60;95.58
83200;BME280;73092;49.132;8.920;2024-01-25T05:49:51;100691.94;;;5.52;95.44
83200;BME280;73092;49.132;8.920;2024-01-25T05:52:16;100695.56;;;5.66;95.46
83200;BME280;73092;49.132;8.920;2024-01-25T05:54:42;100698.06;;;5.55;95.15
83200;BME280;73092;49.132;8.920;2024-01-25T05:57:09;100695.47;;;5.57;94.69
83200;BME280;73092;49.132;8.920;2024-01-25T05:59:34;100690.19;;;5.51;94.47
83200;BME280;73092;49.132;8.920;2024-01-25T06:02:00;100684.81;;;5.39;95.39
83200;BME280;73092;49.132;8.920;2024-01-25T06:04:25;100681.19;;;5.24;95.39
83200;BME280;73092;49.132;8.920;2024-01-25T06:06:50;100670.63;;;5.15;95.69
83200;BME280;73092;49.132;8.920;2024-01-25T06:09:16;100686.22;;;5.12;95.49
83200;BME280;73092;49.132;8.920;2024-01-25T06:11:41;100684.50;;;5.11;96.33
83200;BME280;73092;49.132;8.920;2024-01-25T06:14:08;100685.56;;;5.27;95.95
83200;BME280;73092;49.132;8.920;2024-01-25T06:16:33;100674.22;;;5.26;95.85
83200;BME280;73092;49.132;8.920;2024-01-25T06:18:59;100673.72;;;5.55;95.16
83200;BME280;73092;49.132;8.920;2024-01-25T06:21:25;100676.16;;;5.40;94.84
83200;BME280;73092;49.132;8.920;2024-01-25T06:23:51;100689.00;;;5.26;95.37
83200;BME280;73092;49.132;8.920;2024-01-25T06:26:16;100690.88;;;5.36;95.98
83200;BME280;73092;49.132;8.920;2024-01-25T06:28:41;100692.59;;;5.36;95.16
83200;BME280;73092;49.132;8.920;2024-01-25T06:31:07;100695.09;;;5.26;95.79
83200;BME280;73092;49.132;8.920;2024-01-25T06:33:32;100688.00;;;5.16;96.02
83200;BME280;73092;49.132;8.920;2024-01-25T06:35:57;100700.09;;;5.08;96.15
83200;BME280;73092;49.132;8.920;2024-01-25T06:38:23;100696.53;;;5.03;96.98
83200;BME280;73092;49.132;8.920;2024-01-25T06:40:48;100698.09;;;4.92;96.68
83200;BME280;73092;49.132;8.920;2024-01-25T06:43:14;100707.59;;;4.88;96.93
83200;BME280;73092;49.132;8.920;2024-01-25T06:45:39;100714.41;;;4.78;97.18
83200;BME280;73092;49.132;8.920;2024-01-25T06:48:07;100722.03;;;4.66;96.66
83200;BME280;73092;49.132;8.920;2024-01-25T06:50:36;100725.34;;;4.56;97.10
83200;BME280;73092;49.132;8.920;2024-01-25T06:53:01;100723.41;;;4.43;97.45
83200;BME280;73092;49.132;8.920;2024-01-25T06:55:26;100727.38;;;4.22;97.85
83200;BME280;73092;49.132;8.920;2024-01-25T06:57:52;100733.28;;;4.12;97.99
83200;BME280;73092;49.132;8.920;2024-01-25T07:00:17;100744.19;;;3.92;98.54
83200;BME280;73092;49.132;8.920;2024-01-25T07:02:44;100743.03;;;3.78;99.34
83200;BME280;73092;49.132;8.920;2024-01-25T07:05:09;100746.34;;;3.69;99.73
83200;BME280;73092;49.132;8.920;2024-01-25T07:07:35;100739.19;;;3.58;100.00
83200;BME280;73092;49.132;8.920;2024-01-25T07:10:00;100752.88;;;3.51;100.00
83200;BME280;73092;49.132;8.920;2024-01-25T07:12:25;100747.50;;;3.41;100.00
83200;BME280;73092;49.132;8.920;2024-01-25T07:14:51;100752.56;;;3.35;100.00
83200;BME280;73092;49.132;8.920;2024-01-25T07:17:16;100759.41;;;3.30;100.00
83200;BME280;73092;49.132;8.920;2024-01-25T07:19:41;100758.53;;;3.30;100.00
83200;BME280;73092;49.132;8.920;2024-01-25T07:22:07;100765.34;;;3.24;100.00
83200;BME280;73092;49.132;8.920;2024-01-25T07:24:33;100754.00;;;3.21;100.00
83200;BME280;73092;49.132;8.920;2024-01-25T07:26:58;100748.81;;;3.21;100.00
83200;BME280;73092;49.132;8.920;2024-01-25T07:29:23;100749.00;;;3.30;100.00
83200;BME280;73092;49.132;8.920;2024-01-25T07:31:49;100758.75;;;3.40;100.00
83200;BME280;73092;49.132;8.920;2024-01-25T07:34:14;100751.13;;;3.50;100.00
83200;BME280;73092;49.132;8.920;2024-01-25T07:36:39;100752.31;;;3.65;100.00
83200;BME280;73092;49.132;8.920;2024-01-25T07:39:05;100757.72;;;3.75;100.00
83200;BME280;73092;49.132;8.920;2024-01-25T07:41:30;100763.84;;;3.78;100.00
83200;BME280;73092;49.132;8.920;2024-01-25T07:43:55;100768.25;;;3.81;100.00
83200;BME280;73092;49.132;8.920;2024-01-25T07:46:21;100766.34;;;3.72;100.00
83200;BME280;73092;49.132;8.920;2024-01-25T07:48:47;100781.06;;;3.70;100.00
83200;BME280;73092;49.132;8.920;2024-01-25T07:51:13;100768.84;;;3.67;100.00
83200;BME280;73092;49.132;8.920;2024-01-25T07:53:38;100753.19;;;3.66;100.00
83200;BME280;73092;49.132;8.920;2024-01-25T07:56:07;100762.06;;;3.74;100.00
83200;BME280;73092;49.132;8.920;2024-01-25T07:58:33;100754.31;;;3.79;100.00
83200;BME280;73092;49.132;8.920;2024-01-25T08:00:59;100755.25;;;3.82;100.00
83200;BME280;73092;49.132;8.920;2024-01-25T08:03:24;100751.00;;;3.86;100.00
83200;BME280;73092;49.132;8.920;2024-01-25T08:05:49;100766.13;;;4.07;100.00
83200;BME280;73092;49.132;8.920;2024-01-25T08:08:15;100762.84;;;4.15;100.00
83200;BME280;73092;49.132;8.920;2024-01-25T08:10:40;100765.72;;;4.32;100.00
83200;BME280;73092;49.132;8.920;2024-01-25T08:13:05;100760.72;;;4.43;100.00
83200;BME280;73092;49.132;8.920;2024-01-25T08:15:31;100757.53;;;4.59;100.00
83200;BME280;73092;49.132;8.920;2024-01-25T08:17:56;100755.16;;;4.73;99.85
83200;BME280;73092;49.132;8.920;2024-01-25T08:20:21;100757.88;;;4.82;99.79
83200;BME280;73092;49.132;8.920;2024-01-25T08:22:47;100751.84;;;4.83;99.08
83200;BME280;73092;49.132;8.920;2024-01-25T08:25:12;100760.63;;;4.92;98.76
83200;BME280;73092;49.132;8.920;2024-01-25T08:27:39;100758.97;;;4.97;98.56
83200;BME280;73092;49.132;8.920;2024-01-25T08:30:05;100753.88;;;5.03;98.51
83200;BME280;73092;49.132;8.920;2024-01-25T08:32:31;100753.88;;;5.03;98.88
83200;BME280;73092;49.132;8.920;2024-01-25T08:34:56;100752.31;;;5.16;98.69
83200;BME280;73092;49.132;8.920;2024-01-25T08:37:21;100760.34;;;5.32;98.04
83200;BME280;73092;49.132;8.920;2024-01-25T08:39:47;100761.34;;;5.41;97.73
83200;BME280;73092;49.132;8.920;2024-01-25T08:42:16;100754.44;;;5.43;97.17
83200;BME280;73092;49.132;8.920;2024-01-25T08:44:42;100770.19;;;5.52;97.42
83200;BME280;73092;49.132;8.920;2024-01-25T08:47:14;100768.59;;;5.63;97.20
83200;BME280;73092;49.132;8.920;2024-01-25T08:49:41;100772.13;;;5.68;97.16
83200;BME280;73092;49.132;8.920;2024-01-25T08:52:07;100760.97;;;5.80;97.43
83200;BME280;73092;49.132;8.920;2024-01-25T08:54:32;100768.00;;;5.87;97.46
83200;BME280;73092;49.132;8.920;2024-01-25T08:56:58;100771.63;;;5.98;97.45
83200;BME280;73092;49.132;8.920;2024-01-25T08:59:23;100770.94;;;6.13;97.31
83200;BME280;73092;49.132;8.920;2024-01-25T09:01:48;100765.88;;;6.29;96.67
83200;BME280;73092;49.132;8.920;2024-01-25T09:04:14;100766.78;;;6.31;96.95
83200;BME280;73092;49.132;8.920;2024-01-25T09:06:39;100785.19;;;6.43;96.83
83200;BME280;73092;49.132;8.920;2024-01-25T09:09:05;100790.50;;;6.52;95.99
83200;BME280;73092;49.132;8.920;2024-01-25T09:11:30;100792.28;;;6.59;96.59
83200;BME280;73092;49.132;8.920;2024-01-25T09:13:56;100794.06;;;6.63;96.11
83200;BME280;73092;49.132;8.920;2024-01-25T09:16:22;100795.81;;;6.67;96.18
83200;BME280;73092;49.132;8.920;2024-01-25T09:18:47;100802.00;;;6.74;96.77
83200;BME280;73092;49.132;8.920;2024-01-25T09:21:13;100802.91;;;6.78;96.16
83200;BME280;73092;49.132;8.920;2024-01-25T09:23:39;100808.22;;;6.87;96.46
83200;BME280;73092;49.132;8.920;2024-01-25T09:26:05;100803.03;;;6.93;95.99
83200;BME280;73092;49.132;8.920;2024-01-25T09:28:30;100802.19;;;6.99;96.13
83200;BME280;73092;49.132;8.920;2024-01-25T09:30:56;100804.03;;;7.09;95.41
83200;BME280;73092;49.132;8.920;2024-01-25T09:33:21;100805.81;;;7.16;95.47
83200;BME280;73092;49.132;8.920;2024-01-25T09:35:47;100806.75;;;7.24;94.76
83200;BME280;73092;49.132;8.920;2024-01-25T09:38:13;100807.69;;;7.34;94.84
83200;BME280;73092;49.132;8.920;2024-01-25T09:40:38;100800.75;;;7.40;95.19
83200;BME280;73092;49.132;8.920;2024-01-25T09:43:04;100810.41;;;7.52;94.54
83200;BME280;73092;49.132;8.920;2024-01-25T09:45:31;100811.34;;;7.62;93.69
83200;BME280;73092;49.132;8.920;2024-01-25T09:47:56;100806.13;;;7.73;92.27
83200;BME280;73092;49.132;8.920;2024-01-25T09:50:22;100807.06;;;7.85;91.52
83200;BME280;73092;49.132;8.920;2024-01-25T09:52:54;100812.34;;;7.90;91.12
83200;BME280;73092;49.132;8.920;2024-01-25T09:55:24;100816.69;;;7.94;91.27
83200;BME280;73092;49.132;8.920;2024-01-25T09:57:53;100815.00;;;7.99;91.28
83200;BME280;73092;49.132;8.920;2024-01-25T10:00:19;100826.31;;;8.01;90.80
83200;BME280;73092;49.132;8.920;2024-01-25T10:02:47;100824.63;;;8.09;89.56
83200;BME280;73092;49.132;8.920;2024-01-25T10:05:14;100812.41;;;8.21;89.37
83200;BME280;73092;49.132;8.920;2024-01-25T10:07:44;100824.69;;;8.31;89.74
83200;BME280;73092;49.132;8.920;2024-01-25T10:10:10;100829.03;;;8.33;88.17
83200;BME280;73092;49.132;8.920;2024-01-25T10:12:42;100828.22;;;8.45;86.95
83200;BME280;73092;49.132;8.920;2024-01-25T10:15:09;100824.78;;;8.49;85.67
83200;BME280;73092;49.132;8.920;2024-01-25T10:17:34;100824.78;;;8.52;85.21
83200;BME280;73092;49.132;8.920;2024-01-25T10:20:00;100823.91;;;8.53;84.82
83200;BME280;73092;49.132;8.920;2024-01-25T10:22:25;100816.91;;;8.54;85.12
83200;BME280;73092;49.132;8.920;2024-01-25T10:24:52;100831.75;;;8.56;84.50
83200;BME280;73092;49.132;8.920;2024-01-25T10:27:19;100823.03;;;8.64;83.81
83200;BME280;73092;49.132;8.920;2024-01-25T10:29:44;100832.63;;;8.68;82.65
83200;BME280;73092;49.132;8.920;2024-01-25T10:32:10;100828.28;;;8.79;83.72
83200;BME280;73092;49.132;8.920;2024-01-25T10:34:36;100818.69;;;8.87;82.90
83200;BME280;73092;49.132;8.920;2024-01-25T10:37:06;100812.56;;;9.00;82.14
83200;BME280;73092;49.132;8.920;2024-01-25T10:39:32;100809.06;;;8.97;81.71
83200;BME280;73092;49.132;8.920;2024-01-25T10:41:59;100808.19;;;9.01;80.49
83200;BME280;73092;49.132;8.920;2024-01-25T10:44:25;100811.66;;;9.01;80.95
83200;BME280;73092;49.132;8.920;2024-01-25T10:46:50;100817.81;;;9.07;80.97
83200;BME280;73092;49.132;8.920;2024-01-25T10:49:17;100809.91;;;9.14;79.96
83200;BME280;73092;49.132;8.920;2024-01-25T10:51:44;100813.44;;;9.07;78.88
83200;BME280;73092;49.132;8.920;2024-01-25T10:54:11;100807.31;;;9.00;78.49
83200;BME280;73092;49.132;8.920;2024-01-25T10:56:45;100805.56;;;8.90;78.86
83200;BME280;73092;49.132;8.920;2024-01-25T10:59:11;100816.06;;;8.84;80.69
83200;BME280;73092;49.132;8.920;2024-01-25T11:01:37;100809.06;;;8.89;80.74
83200;BME280;73092;49.132;8.920;2024-01-25T11:04:03;100805.56;;;8.90;81.04
83200;BME280;73092;49.132;8.920;2024-01-25T11:06:28;100806.44;;;8.95;80.41
83200;BME280;73092;49.132;8.920;2024-01-25T11:09:04;100805.56;;;8.99;78.68
83200;BME280;73092;49.132;8.920;2024-01-25T11:11:31;100809.06;;;9.01;78.14
83200;BME280;73092;49.132;8.920;2024-01-25T11:13:56;100803.81;;;9.04;78.42
83200;BME280;73092;49.132;8.920;2024-01-25T11:16:30;100791.56;;;9.03;78.90
83200;BME280;73092;49.132;8.920;2024-01-25T11:18:58;100793.31;;;9.04;79.00
83200;BME280;73092;49.132;8.920;2024-01-25T11:21:49;100782.81;;;9.04;79.41
83200;BME280;73092;49.132;8.920;2024-01-25T11:24:23;100772.31;;;8.95;79.57
83200;BME280;73092;49.132;8.920;2024-01-25T11:26:51;100763.59;;;9.02;80.12
83200;BME280;73092;49.132;8.920;2024-01-25T11:29:17;100767.09;;;8.95;80.17
83200;BME280;73092;49.132;8.920;2024-01-25T11:31:47;100753.09;;;9.01;80.59
83200;BME280;73092;49.132;8.920;2024-01-25T11:34:14;100753.06;;;9.12;80.64
83200;BME280;73092;49.132;8.920;2024-01-25T11:36:40;100754.81;;;9.28;80.00
83200;BME280;73092;49.132;8.920;2024-01-25T11:39:08;100757.38;;;9.42;79.76
83200;BME280;73092;49.132;8.920;2024-01-25T11:41:35;100759.09;;;9.50;79.85
83200;BME280;73092;49.132;8.920;2024-01-25T11:44:04;100759.06;;;9.66;79.08
83200;BME280;73092;49.132;8.920;2024-01-25T11:46:30;100750.28;;;9.64;78.31
83200;BME280;73092;49.132;8.920;2024-01-25T11:48:57;100747.59;;;9.79;78.37
83200;BME280;73092;49.132;8.920;2024-01-25T11:51:23;100751.06;;;9.89;77.99
83200;BME280;73092;49.132;8.920;2024-01-25T11:53:48;100756.22;;;10.06;76.41
83200;BME280;73092;49.132;8.920;2024-01-25T11:56:19;100758.88;;;10.01;76.83
83200;BME280;73092;49.132;8.920;2024-01-25T11:58:46;100755.41;;;9.96;75.84
83200;BME280;73092;49.132;8.920;2024-01-25T12:01:13;100750.16;;;9.94;73.69
83200;BME280;73092;49.132;8.920;2024-01-25T12:03:40;100749.31;;;9.86;74.95
83200;BME280;73092;49.132;8.920;2024-01-25T12:06:05;100744.94;;;9.88;75.02
83200;BME280;73092;49.132;8.920;2024-01-25T12:08:34;100728.38;;;9.68;77.23
83200;BME280;73092;49.132;8.920;2024-01-25T12:11:07;100731.91;;;9.67;77.69
83200;BME280;73092;49.132;8.920;2024-01-25T12:13:39;100714.47;;;9.50;77.78
83200;BME280;73092;49.132;8.920;2024-01-25T12:16:06;100710.09;;;9.48;77.55
83200;BME280;73092;49.132;8.920;2024-01-25T12:18:31;100709.22;;;9.50;77.38
83200;BME280;73092;49.132;8.920;2024-01-25T12:21:02;100709.16;;;9.69;77.45
83200;BME280;73092;49.132;8.920;2024-01-25T12:23:31;100714.34;;;9.80;77.36
83200;BME280;73092;49.132;8.920;2024-01-25T12:25:59;100712.56;;;9.80;75.51
83200;BME280;73092;49.132;8.920;2024-01-25T12:28:29;100714.28;;;9.93;74.84
83200;BME280;73092;49.132;8.920;2024-01-25T12:30:55;100716.78;;;10.09;72.71
83200;BME280;73092;49.132;8.920;2024-01-25T12:33:21;100707.09;;;10.17;73.43
83200;BME280;73092;49.132;8.920;2024-01-25T12:35:46;100708.00;;;10.16;72.04
83200;BME280;73092;49.132;8.920;2024-01-25T12:38:12;100714.94;;;10.28;71.26
83200;BME280;73092;49.132;8.920;2024-01-25T12:40:37;100707.03;;;10.32;71.51
83200;BME280;73092;49.132;8.920;2024-01-25T12:43:02;100693.84;;;10.35;70.60
83200;BME280;73092;49.132;8.920;2024-01-25T12:45:28;100694.81;;;10.28;71.36
83200;BME280;73092;49.132;8.920;2024-01-25T12:47:53;100703.53;;;10.24;70.53
83200;BME280;73092;49.132;8.920;2024-01-25T12:50:19;100687.78;;;10.27;70.35
83200;BME280;73092;49.132;8.920;2024-01-25T12:52:45;100674.63;;;10.27;70.33
83200;BME280;73092;49.132;8.920;2024-01-25T12:55:11;100678.03;;;10.41;69.91